Time;durP1;ratioP1;P1;durP2;ratioP2;P2;SDS_P1;SDS_P2;PMS_P1;PMS_P2;Temp;Humidity;BMP_temperature;BMP_pressure;BME280_temperature;BME280_humidity;BME280_pressure;Samples;Min_cycle;Max_cycle;Signal;HPM_P1;HPM_P2
2022/01/25 00:26:46;;;;;;;47.13;29.77;;;-4.90;99.90;;;;;;5016671;28;20269;-89
2022/01/25 00:29:25;;;;;;;46.65;23.35;;;-5.00;99.90;;;;;;5015528;28;20523;-87
2022/01/25 00:31:51;;;;;;;44.90;24.90;;;-5.00;99.90;;;;;;5016077;28;20187;-89
2022/01/25 00:34:17;;;;;;;39.70;22.80;;;-5.10;99.90;;;;;;5016564;28;20251;-87
2022/01/25 00:36:42;;;;;;;39.30;25.23;;;-5.10;99.90;;;;;;5015689;28;20175;-87
2022/01/25 00:39:08;;;;;;;41.90;24.00;;;-5.20;99.90;;;;;;5018139;28;20186;-88
2022/01/25 00:41:34;;;;;;;48.57;27.27;;;-5.30;99.90;;;;;;5033793;28;20222;-89
2022/01/25 00:44:01;;;;;;;48.25;26.25;;;-5.40;99.90;;;;;;5015111;28;20187;-89
2022/01/25 00:46:28;;;;;;;45.83;25.00;;;-5.40;99.90;;;;;;5014444;28;20223;-89
2022/01/25 00:48:59;;;;;;;39.47;24.63;;;-5.40;99.90;;;;;;5014892;28;20633;-88
2022/01/25 00:54:27;;;;;;;39.65;22.92;;;-5.40;99.90;;;;;;5016135;28;20192;-89
2022/01/25 00:56:53;;;;;;;40.47;23.33;;;-5.40;99.90;;;;;;5014905;28;20179;-89
2022/01/25 00:59:31;;;;;;;47.50;23.05;;;-5.40;99.90;;;;;;5014476;28;20652;-88
2022/01/25 01:02:00;;;;;;;41.08;22.65;;;-5.30;99.90;;;;;;5014551;28;20201;-88
2022/01/25 01:04:27;;;;;;;41.55;20.92;;;-5.30;99.90;;;;;;5015411;28;20278;-87
2022/01/25 01:06:53;;;;;;;47.20;24.27;;;-5.40;99.90;;;;;;5014202;28;20186;-89
2022/01/25 01:09:22;;;;;;;40.63;23.90;;;-5.30;99.90;;;;;;5014116;28;20230;-88
2022/01/25 01:12:01;;;;;;;44.10;25.55;;;-5.30;99.90;;;;;;5014219;28;20409;-89
2022/01/25 01:17:17;;;;;;;47.63;26.27;;;-5.40;99.90;;;;;;5016816;28;20176;-90
2022/01/25 01:30:55;;;;;;;98.68;47.78;;;-5.60;99.90;;;;;;5015531;28;20286;-87
2022/01/25 01:41:46;;;;;;;128.80;53.58;;;-5.90;99.90;;;;;;5015977;28;20431;-90
2022/01/25 01:44:26;;;;;;;104.72;49.90;;;-5.90;99.90;;;;;;5015204;28;20203;-87
2022/01/25 01:47:18;;;;;;;90.25;46.13;;;-6.00;99.90;;;;;;5014597;28;20171;-89
2022/01/25 01:49:45;;;;;;;84.18;43.75;;;-6.10;99.90;;;;;;5018966;28;20570;-87
2022/01/25 01:52:12;;;;;;;85.18;41.10;;;-6.20;99.90;;;;;;5026221;28;20185;-87
2022/01/25 01:54:38;;;;;;;75.72;36.75;;;-6.30;99.90;;;;;;5014856;28;20195;-87
2022/01/25 01:57:06;;;;;;;71.13;36.00;;;-6.30;99.90;;;;;;5014538;28;20234;-89
2022/01/25 01:59:32;;;;;;;77.20;34.65;;;-6.20;99.90;;;;;;5013945;28;20205;-88
2022/01/25 02:01:58;;;;;;;80.10;42.53;;;-6.20;99.90;;;;;;5013830;28;20179;-88
2022/01/25 02:04:24;;;;;;;72.93;38.53;;;-6.20;99.90;;;;;;5014765;28;20179;-88
2022/01/25 02:06:52;;;;;;;53.17;31.27;;;-6.20;99.90;;;;;;5019412;28;20229;-89
2022/01/25 02:09:20;;;;;;;57.53;28.27;;;-6.10;99.90;;;;;;5017963;28;20284;-87
2022/01/25 02:11:46;;;;;;;49.53;28.23;;;-6.10;99.90;;;;;;5017928;28;20178;-87
2022/01/25 02:14:13;;;;;;;69.93;36.00;;;-6.10;99.90;;;;;;5017873;28;20637;-89
2022/01/25 02:22:26;;;;;;;64.25;33.38;;;-6.00;99.90;;;;;;5020980;28;20166;-88
2022/01/25 02:24:52;;;;;;;76.68;36.85;;;-6.10;99.90;;;;;;5017479;28;20765;-88
2022/01/25 02:27:18;;;;;;;58.53;33.13;;;-6.10;99.90;;;;;;5017537;28;20380;-88
2022/01/25 02:29:44;;;;;;;78.07;42.10;;;-6.20;99.90;;;;;;5018624;28;20202;-89
2022/01/25 02:32:10;;;;;;;54.33;30.27;;;-6.10;99.90;;;;;;5017754;28;20187;-89
2022/01/25 02:34:36;;;;;;;47.58;27.63;;;-6.20;99.90;;;;;;5017264;28;20202;-87
2022/01/25 02:37:03;;;;;;;71.13;36.00;;;-6.10;99.90;;;;;;5017594;28;20179;-88
2022/01/25 02:39:29;;;;;;;57.83;34.08;;;-6.10;99.90;;;;;;5017967;28;20440;-87
2022/01/25 02:41:55;;;;;;;49.78;27.58;;;-6.10;99.90;;;;;;5017515;28;20194;-87
2022/01/25 02:44:27;;;;;;;47.63;27.95;;;-6.10;99.90;;;;;;5017494;28;20183;-88
2022/01/25 02:49:32;;;;;;;48.47;27.50;;;-6.00;99.90;;;;;;5019507;28;20163;-87
2022/01/25 02:52:00;;;;;;;50.92;28.73;;;-6.00;99.90;;;;;;5031256;28;20175;-87
2022/01/25 02:54:26;;;;;;;54.78;32.30;;;-6.10;99.90;;;;;;5017970;28;20179;-87
2022/01/25 02:56:53;;;;;;;52.53;29.83;;;-6.00;99.90;;;;;;5017243;28;20186;-88
2022/01/25 02:59:19;;;;;;;52.22;29.45;;;-6.00;99.90;;;;;;5018368;28;20229;-89
2022/01/25 03:01:47;;;;;;;48.08;26.80;;;-6.00;99.90;;;;;;5018139;28;20198;-87
2022/01/25 03:04:13;;;;;;;53.88;27.10;;;-5.90;99.90;;;;;;5017333;28;20194;-87
2022/01/25 03:06:42;;;;;;;53.08;26.08;;;-6.00;99.90;;;;;;5017018;28;20209;-86
2022/01/25 03:09:08;;;;;;;44.15;26.83;;;-6.00;99.90;;;;;;5016735;28;20754;-89
2022/01/25 03:11:33;;;;;;;42.73;25.70;;;-6.00;99.90;;;;;;5017467;28;20203;-87
2022/01/25 03:14:03;;;;;;;46.87;24.63;;;-6.00;99.90;;;;;;5017089;28;20199;-87
2022/01/25 03:16:42;;;;;;;44.30;24.30;;;-6.00;99.90;;;;;;5016762;28;20213;-88
2022/01/25 03:21:57;;;;;;;45.22;23.70;;;-6.00;99.90;;;;;;5018059;28;20613;-89
2022/01/25 03:24:23;;;;;;;45.47;23.10;;;-6.00;99.90;;;;;;5017125;28;20183;-87
2022/01/25 03:26:49;;;;;;;46.75;24.77;;;-6.00;99.90;;;;;;5017366;28;20564;-87
2022/01/25 03:29:15;;;;;;;46.50;25.40;;;-6.00;99.90;;;;;;5017651;28;20180;-86
2022/01/25 03:31:41;;;;;;;51.90;25.60;;;-6.00;99.90;;;;;;5016493;28;20179;-87
2022/01/25 03:34:07;;;;;;;48.53;25.35;;;-6.00;99.90;;;;;;5016747;28;20524;-88
2022/01/25 03:36:33;;;;;;;44.80;23.90;;;-5.90;99.90;;;;;;5016028;28;20295;-88
2022/01/25 03:38:59;;;;;;;51.25;27.08;;;-5.90;99.90;;;;;;5016341;28;20202;-87
2022/01/25 03:41:26;;;;;;;54.55;29.67;;;-5.90;99.90;;;;;;5023646;28;20191;-87
2022/01/25 03:43:55;;;;;;;52.67;27.23;;;-5.90;99.90;;;;;;5035857;28;20177;-89
2022/01/25 03:51:35;;;;;;;412.67;128.98;;;-5.90;99.90;;;;;;5017061;28;20689;-88
2022/01/25 03:54:02;;;;;;;1204.77;475.60;;;-5.90;99.90;;;;;;5017361;28;20179;-87
2022/01/25 03:56:27;;;;;;;393.77;147.35;;;-5.90;99.90;;;;;;5015579;28;20206;-87
2022/01/25 03:58:53;;;;;;;88.77;49.57;;;-5.90;99.90;;;;;;5016070;28;20617;-88
2022/01/25 04:01:19;;;;;;;73.30;38.05;;;-5.90;99.90;;;;;;5016700;28;20256;-89
2022/01/25 04:03:58;;;;;;;63.60;33.53;;;-5.90;99.90;;;;;;5015840;28;20178;-87
2022/01/25 04:06:25;;;;;;;77.63;38.55;;;-5.90;99.90;;;;;;5015541;28;20516;-88
2022/01/25 04:08:51;;;;;;;70.68;35.25;;;-5.90;99.90;;;;;;5015375;28;20274;-87
2022/01/25 04:11:17;;;;;;;99.90;46.17;;;-5.90;99.90;;;;;;5015672;28;20313;-88
2022/01/25 04:13:43;;;;;;;111.15;51.67;;;-5.90;99.90;;;;;;5015734;28;20555;-88
2022/01/25 04:16:18;;;;;;;143.77;61.73;;;-5.90;99.90;;;;;;5015173;28;20210;-87
2022/01/25 04:18:55;;;;;;;96.35;45.10;;;-6.00;99.90;;;;;;5015605;28;20792;-87
2022/01/25 04:21:40;;;;;;;90.60;43.25;;;-6.00;99.90;;;;;;5015112;28;20195;-87
2022/01/25 04:26:53;;;;;;;53.75;28.77;;;-6.10;99.90;;;;;;5028383;28;20259;-88
2022/01/25 04:29:19;;;;;;;61.83;31.95;;;-6.10;99.90;;;;;;5017607;28;20179;-87
2022/01/25 04:31:45;;;;;;;60.53;26.63;;;-6.10;99.90;;;;;;5015791;28;20209;-87
2022/01/25 04:36:56;;;;;;;52.50;26.10;;;-6.10;99.90;;;;;;5016513;28;20195;-87
2022/01/25 04:53:05;;;;;;;58.45;28.42;;;-6.10;99.90;;;;;;5017999;28;20608;-88
2022/01/25 04:55:38;;;;;;;55.30;29.50;;;-6.10;99.90;;;;;;5015907;28;20203;-87
2022/01/25 04:58:12;;;;;;;58.22;29.92;;;-6.10;99.90;;;;;;5015070;28;20214;-88
2022/01/25 05:00:38;;;;;;;54.72;30.75;;;-6.10;99.90;;;;;;5014712;28;20229;-88
2022/01/25 05:03:14;;;;;;;60.45;30.52;;;-6.10;99.90;;;;;;5016789;28;20234;-87
2022/01/25 05:11:14;;;;;;;64.40;31.70;;;-6.00;99.90;;;;;;5015674;28;20683;-88
2022/01/25 05:13:46;;;;;;;46.10;25.40;;;-6.00;99.90;;;;;;5016210;28;20176;-87
2022/01/25 05:24:12;;;;;;;45.72;24.48;;;-5.90;99.90;;;;;;5014494;28;20182;-87
2022/01/25 05:26:38;;;;;;;48.10;23.10;;;-5.90;99.90;;;;;;4994495;28;20703;-87
2022/01/25 05:29:04;;;;;;;42.80;23.57;;;-5.80;99.90;;;;;;5013256;28;20452;-87
2022/01/25 05:31:29;;;;;;;64.57;28.93;;;-5.70;99.90;;;;;;5013536;28;20195;-87
2022/01/25 05:33:55;;;;;;;107.00;40.90;;;-5.60;99.90;;;;;;5013934;28;20420;-87
2022/01/25 05:36:21;;;;;;;94.85;39.88;;;-5.40;99.90;;;;;;5013193;28;20267;-87
2022/01/25 05:38:47;;;;;;;96.23;47.60;;;-5.30;99.90;;;;;;5014209;28;20182;-87
2022/01/25 05:41:14;;;;;;;50.33;27.02;;;-5.20;99.90;;;;;;5014925;28;20279;-88
2022/01/25 05:46:34;;;;;;;77.25;41.30;;;-5.20;99.90;;;;;;5014358;28;20765;-88
2022/01/25 05:49:00;;;;;;;63.33;33.25;;;-5.20;99.90;;;;;;5012771;28;20190;-88
2022/01/25 05:51:26;;;;;;;69.93;35.13;;;-5.20;99.90;;;;;;5012132;28;20192;-87
2022/01/25 05:53:52;;;;;;;58.10;27.33;;;-5.30;99.90;;;;;;5014433;28;20237;-87
2022/01/25 05:56:17;;;;;;;54.17;25.60;;;-5.40;99.90;;;;;;5013603;28;20444;-88
2022/01/25 05:58:43;;;;;;;180.43;69.03;;;-5.40;99.90;;;;;;5014180;28;20199;-87
2022/01/25 06:01:09;;;;;;;205.03;73.07;;;-5.40;99.90;;;;;;5014236;28;20199;-87
2022/01/25 06:03:35;;;;;;;88.77;43.97;;;-5.40;99.90;;;;;;5016752;28;20171;-88
2022/01/25 06:06:01;;;;;;;98.78;45.83;;;-5.50;99.90;;;;;;5030266;28;20310;-88
2022/01/25 06:08:27;;;;;;;73.23;39.27;;;-5.50;99.90;;;;;;5016813;28;20318;-87
2022/01/25 06:10:52;;;;;;;58.10;31.27;;;-5.70;99.90;;;;;;5012899;28;20432;-87
2022/01/25 06:13:18;;;;;;;51.40;27.77;;;-5.70;99.90;;;;;;5011117;28;20282;-87
2022/01/25 06:15:44;;;;;;;50.33;23.80;;;-5.80;99.90;;;;;;5013552;28;20195;-88
2022/01/25 06:18:10;;;;;;;53.15;25.48;;;-5.90;99.90;;;;;;4997377;28;20187;-87
2022/01/25 06:20:35;;;;;;;43.50;25.77;;;-6.00;99.90;;;;;;5012274;28;20252;-87
2022/01/25 06:23:01;;;;;;;46.90;24.87;;;-5.90;99.90;;;;;;5014124;28;20711;-88
2022/01/25 06:25:27;;;;;;;52.33;27.50;;;-5.90;99.90;;;;;;5013394;28;20222;-87
2022/01/25 06:27:52;;;;;;;53.40;27.30;;;-6.00;99.90;;;;;;5012825;28;20427;-87
2022/01/25 06:30:19;;;;;;;48.00;25.80;;;-6.10;99.90;;;;;;5014879;28;20231;-88
2022/01/25 06:32:46;;;;;;;47.65;25.30;;;-6.10;99.90;;;;;;5012383;28;20649;-87
2022/01/25 06:35:12;;;;;;;49.92;26.30;;;-6.00;99.90;;;;;;5003800;28;20224;-87
2022/01/25 06:37:38;;;;;;;51.28;25.48;;;-6.00;99.90;;;;;;4999638;28;20625;-88
2022/01/25 06:40:06;;;;;;;48.73;27.93;;;-5.90;99.90;;;;;;5011498;28;20290;-88
2022/01/25 06:42:32;;;;;;;49.55;25.30;;;-5.90;99.90;;;;;;5024691;28;20267;-87
2022/01/25 06:45:02;;;;;;;45.60;28.27;;;-5.90;99.90;;;;;;5011440;28;20696;-86
2022/01/25 06:47:28;;;;;;;45.65;27.17;;;-5.90;99.90;;;;;;5012839;28;20206;-88
2022/01/25 06:49:54;;;;;;;58.50;28.90;;;-5.90;99.90;;;;;;5013510;28;20201;-88
2022/01/25 06:52:20;;;;;;;56.97;27.13;;;-5.90;99.90;;;;;;5014007;28;20180;-88
2022/01/25 06:54:45;;;;;;;52.70;27.00;;;-5.80;99.90;;;;;;5015254;28;20567;-87
2022/01/25 06:57:11;;;;;;;48.00;24.63;;;-5.90;99.90;;;;;;5013352;28;20179;-87
2022/01/25 06:59:37;;;;;;;64.70;34.97;;;-5.90;99.90;;;;;;5009760;28;20192;-88
2022/01/25 07:02:03;;;;;;;82.40;40.87;;;-5.80;99.90;;;;;;5010786;28;20429;-87
2022/01/25 07:04:29;;;;;;;107.15;43.08;;;-5.70;99.90;;;;;;5013984;28;20552;-89
2022/01/25 07:06:55;;;;;;;81.47;42.20;;;-5.70;99.90;;;;;;5013824;28;20203;-88
2022/01/25 07:09:21;;;;;;;102.13;46.83;;;-5.70;99.90;;;;;;5015376;28;20234;-87
2022/01/25 07:11:47;;;;;;;81.78;42.50;;;-5.70;99.90;;;;;;5015572;28;20179;-89
2022/01/25 07:14:12;;;;;;;66.27;37.40;;;-5.60;99.90;;;;;;5013707;28;20186;-88
2022/01/25 07:16:38;;;;;;;60.70;33.20;;;-5.60;99.90;;;;;;5016027;28;20467;-88
2022/01/25 07:19:04;;;;;;;62.85;30.58;;;-5.50;99.90;;;;;;5016328;28;20190;-89
2022/01/25 07:21:30;;;;;;;60.70;29.43;;;-5.50;99.90;;;;;;5016065;28;20230;-88
2022/01/25 07:23:56;;;;;;;47.60;26.92;;;-5.30;99.90;;;;;;5011162;28;20448;-89
2022/01/25 07:26:22;;;;;;;34.80;22.43;;;-5.00;99.90;;;;;;5017109;28;20215;-89
2022/01/25 07:28:51;;;;;;;40.23;23.43;;;-4.50;99.90;;;;;;5011996;28;20961;-89
2022/01/25 07:31:16;;;;;;;41.03;22.00;;;-4.20;99.90;;;;;;5034792;28;20267;-88
2022/01/25 07:33:42;;;;;;;32.77;19.30;;;-4.00;99.90;;;;;;5014910;28;20673;-89
2022/01/25 07:36:08;;;;;;;34.73;19.60;;;-3.90;99.90;;;;;;5010525;28;20230;-89
2022/01/25 07:38:33;;;;;;;34.43;19.27;;;-3.80;99.90;;;;;;5013692;28;20191;-89
2022/01/25 07:41:00;;;;;;;37.20;18.97;;;-3.70;99.90;;;;;;5013943;28;20629;-89
2022/01/25 07:43:26;;;;;;;30.13;18.30;;;-3.50;99.90;;;;;;5014601;28;20475;-89
2022/01/25 07:45:53;;;;;;;32.47;18.93;;;-3.30;99.90;;;;;;5014617;28;20242;-90
2022/01/25 07:48:20;;;;;;;61.97;32.63;;;-3.10;99.90;;;;;;5011294;28;20572;-89
2022/01/25 07:50:46;;;;;;;82.97;39.63;;;-2.90;99.90;;;;;;5012685;28;20209;-89
2022/01/25 07:53:12;;;;;;;84.10;40.87;;;-2.50;99.90;;;;;;5011554;28;20453;-89
2022/01/25 07:55:38;;;;;;;59.17;30.40;;;-2.00;99.90;;;;;;5006984;28;20565;-89
2022/01/25 07:58:04;;;;;;;87.80;45.60;;;-1.50;99.90;;;;;;5007249;28;20449;-89
2022/01/25 08:00:30;;;;;;;69.45;37.28;;;-0.80;99.90;;;;;;5006358;28;20445;-88
2022/01/25 08:02:56;;;;;;;31.67;21.95;;;-0.30;99.90;;;;;;5011603;28;20559;-89
2022/01/25 08:05:24;;;;;;;29.70;18.48;;;0.20;99.90;;;;;;5014689;28;20759;-89
2022/01/25 08:07:50;;;;;;;27.80;16.90;;;0.90;99.90;;;;;;5014780;28;20310;-88
2022/01/25 08:10:15;;;;;;;26.47;17.27;;;1.50;99.90;;;;;;5015155;28;20735;-89
2022/01/25 08:12:42;;;;;;;28.00;17.13;;;2.00;99.90;;;;;;5012933;28;20449;-88
2022/01/25 08:15:08;;;;;;;24.75;15.95;;;2.60;99.90;;;;;;5014222;28;20680;-88
2022/01/25 08:17:34;;;;;;;30.10;18.83;;;3.30;99.90;;;;;;5013777;28;20325;-89
2022/01/25 08:20:00;;;;;;;32.30;20.07;;;3.90;98.90;;;;;;5016066;28;20223;-88
2022/01/25 08:22:27;;;;;;;32.67;21.45;;;4.50;97.00;;;;;;5032156;28;20234;-89
2022/01/25 08:24:53;;;;;;;27.83;18.77;;;4.90;95.20;;;;;;5017934;28;20211;-89
2022/01/25 08:27:20;;;;;;;35.20;22.70;;;5.40;93.60;;;;;;5014908;28;20250;-89
2022/01/25 08:29:52;;;;;;;44.42;27.73;;;5.90;93.30;;;;;;5016109;28;20551;-89
2022/01/25 08:32:19;;;;;;;30.98;19.00;;;6.40;92.00;;;;;;5014313;28;20183;-89
2022/01/25 08:34:46;;;;;;;42.35;25.77;;;6.70;91.40;;;;;;5015083;28;20230;-89
2022/01/25 08:37:11;;;;;;;31.42;21.00;;;7.10;90.50;;;;;;5014486;28;20407;-90
2022/01/25 08:39:37;;;;;;;28.33;18.73;;;7.50;89.10;;;;;;5012556;28;20230;-89
2022/01/25 08:42:03;;;;;;;46.80;30.57;;;7.60;87.10;;;;;;5012501;28;20234;-88
2022/01/25 08:44:30;;;;;;;70.07;36.80;;;8.00;87.00;;;;;;5005064;28;20187;-88
2022/01/25 08:46:56;;;;;;;55.47;31.83;;;8.30;84.60;;;;;;5013744;28;20684;-89
2022/01/25 08:49:22;;;;;;;54.35;31.00;;;8.40;83.30;;;;;;5014245;28;20705;-88
2022/01/25 08:51:49;;;;;;;29.77;20.83;;;8.70;82.10;;;;;;5012609;28;20175;-89
2022/01/25 08:54:16;;;;;;;28.02;18.85;;;8.80;82.40;;;;;;5014087;28;20198;-88
2022/01/25 08:56:42;;;;;;;24.70;16.60;;;9.00;81.50;;;;;;5010751;28;20175;-89
2022/01/25 08:59:10;;;;;;;22.85;16.50;;;8.90;80.50;;;;;;5001375;28;20195;-89
2022/01/25 09:01:36;;;;;;;26.67;17.48;;;8.70;80.90;;;;;;5013993;28;20207;-88
2022/01/25 09:04:02;;;;;;;21.40;16.33;;;8.70;81.00;;;;;;5012517;28;20202;-89
2022/01/25 09:06:28;;;;;;;26.50;16.50;;;8.60;80.10;;;;;;5015138;28;20257;-90
2022/01/25 09:09:01;;;;;;;24.07;15.80;;;8.50;80.50;;;;;;5013893;28;20223;-89
2022/01/25 09:11:27;;;;;;;22.67;16.63;;;8.60;80.60;;;;;;5016818;28;20206;-89
2022/01/25 09:13:53;;;;;;;23.20;15.35;;;8.40;80.70;;;;;;5013866;28;20183;-89
2022/01/25 09:16:19;;;;;;;22.70;15.60;;;8.00;80.30;;;;;;5009320;28;20256;-89
2022/01/25 09:18:45;;;;;;;24.33;15.70;;;8.10;80.50;;;;;;5012564;28;20187;-89
2022/01/25 09:21:10;;;;;;;21.98;15.27;;;8.20;81.70;;;;;;5014246;28;20250;-88
2022/01/25 09:23:36;;;;;;;21.00;14.33;;;8.10;80.00;;;;;;5014527;28;20194;-90
2022/01/25 09:26:03;;;;;;;21.53;14.10;;;8.10;79.70;;;;;;5013075;28;20269;-90
2022/01/25 09:28:29;;;;;;;23.88;14.32;;;8.20;79.00;;;;;;5008796;28;20213;-90
2022/01/25 09:30:55;;;;;;;23.02;14.82;;;7.90;78.80;;;;;;5010330;28;20210;-88
2022/01/25 09:33:25;;;;;;;23.40;13.83;;;7.40;80.00;;;;;;5015786;28;20183;-88
2022/01/25 09:35:52;;;;;;;24.35;16.15;;;6.70;80.70;;;;;;5011787;28;20456;-88
2022/01/25 09:38:19;;;;;;;24.85;14.60;;;6.00;82.40;;;;;;5009987;28;20187;-89
2022/01/25 09:40:45;;;;;;;27.20;15.23;;;5.30;83.80;;;;;;5009496;28;20268;-89
2022/01/25 09:43:11;;;;;;;23.35;14.57;;;4.70;86.40;;;;;;5008853;28;20183;-88
2022/01/25 09:45:37;;;;;;;23.15;15.13;;;4.20;86.90;;;;;;5010324;28;20249;-89
2022/01/25 09:48:05;;;;;;;25.70;16.65;;;3.80;88.20;;;;;;5008544;28;20183;-89
2022/01/25 09:50:32;;;;;;;29.65;16.05;;;3.60;90.00;;;;;;5008422;28;20215;-95
2022/01/25 09:53:00;;;;;;;27.30;15.45;;;3.40;90.30;;;;;;5012463;28;20188;-88
2022/01/25 09:55:30;;;;;;;23.45;13.65;;;3.30;90.60;;;;;;5028335;28;20207;-87
2022/01/25 09:57:56;;;;;;;49.88;29.98;;;3.30;90.40;;;;;;5009194;28;20184;-89
2022/01/25 10:00:24;;;;;;;41.40;22.53;;;3.30;90.80;;;;;;5002249;28;20211;-89
2022/01/25 10:03:15;;;;;;;48.35;26.13;;;3.40;91.00;;;;;;5026743;28;20205;-89
2022/01/25 10:05:44;;;;;;;48.42;28.45;;;3.70;90.70;;;;;;5012345;28;20266;-90
2022/01/25 10:08:25;;;;;;;53.75;32.22;;;4.10;89.50;;;;;;5011581;28;20219;-89
2022/01/25 10:11:00;;;;;;;152.35;85.63;;;4.40;88.90;;;;;;5011288;28;20743;-88
2022/01/25 10:13:36;;;;;;;87.22;46.28;;;4.80;89.80;;;;;;5013865;28;20179;-89
2022/01/25 10:16:07;;;;;;;57.78;38.10;;;5.20;87.00;;;;;;5005763;28;20213;-88
2022/01/25 10:18:54;;;;;;;30.77;18.48;;;5.20;86.90;;;;;;5006567;28;20259;-88
2022/01/25 10:21:25;;;;;;;40.35;25.25;;;4.90;87.00;;;;;;5030757;28;20214;-88
2022/01/25 10:24:12;;;;;;;22.92;15.82;;;4.50;87.30;;;;;;5009776;28;20171;-87
2022/01/25 10:26:42;;;;;;;28.95;18.13;;;4.10;87.50;;;;;;5021229;28;20272;-87
2022/01/25 10:29:10;;;;;;;25.00;15.73;;;3.70;88.70;;;;;;5012457;28;20179;-88
2022/01/25 10:31:42;;;;;;;20.98;14.95;;;3.40;90.00;;;;;;5022567;28;20215;-87
2022/01/25 10:34:10;;;;;;;22.10;15.35;;;3.10;90.00;;;;;;5014970;28;20183;-87
2022/01/25 10:36:45;;;;;;;20.27;13.45;;;3.10;90.50;;;;;;5017300;28;20771;-86
2022/01/25 10:39:13;;;;;;;24.77;14.00;;;3.10;91.10;;;;;;5016297;28;20197;-85
2022/01/25 10:41:39;;;;;;;21.48;14.73;;;3.10;90.40;;;;;;5004123;28;20228;-85
2022/01/25 10:44:06;;;;;;;22.25;14.05;;;3.10;90.40;;;;;;5017776;28;20198;-86
2022/01/25 10:46:32;;;;;;;19.23;13.20;;;3.20;90.30;;;;;;5021312;28;20244;-85
2022/01/25 10:49:06;;;;;;;50.23;27.93;;;3.10;90.20;;;;;;5013435;28;20210;-87
2022/01/25 10:52:01;;;;;;;21.20;13.05;;;3.10;89.60;;;;;;5012899;28;20482;-88
2022/01/25 10:54:27;;;;;;;14.85;12.07;;;3.10;90.00;;;;;;5001428;28;20245;-88
2022/01/25 10:56:57;;;;;;;16.00;11.83;;;3.10;88.80;;;;;;5014717;28;20644;-85
2022/01/25 10:59:33;;;;;;;19.33;12.95;;;3.10;88.40;;;;;;5013943;28;20437;-87
2022/01/25 11:02:02;;;;;;;21.02;12.63;;;3.10;88.40;;;;;;5018611;28;20188;-87
2022/01/25 11:04:33;;;;;;;19.60;12.65;;;3.10;89.10;;;;;;5007582;28;20179;-85
2022/01/25 11:07:01;;;;;;;28.40;16.27;;;3.10;90.40;;;;;;5017557;28;20282;-86
2022/01/25 11:09:36;;;;;;;23.88;15.70;;;3.20;90.20;;;;;;5008879;28;20231;-86
2022/01/25 11:12:05;;;;;;;20.48;12.52;;;3.30;90.70;;;;;;5028062;28;20183;-87
2022/01/25 11:17:15;;;;;;;26.63;16.02;;;3.60;89.60;;;;;;5013124;28;20198;-85
2022/01/25 11:19:42;;;;;;;31.63;20.63;;;3.60;89.10;;;;;;5012694;28;20206;-85
2022/01/25 11:22:11;;;;;;;22.33;12.63;;;3.70;90.10;;;;;;5000689;28;20194;-87
2022/01/25 11:24:38;;;;;;;19.23;13.85;;;3.70;88.80;;;;;;5005745;28;20203;-87
2022/01/25 11:27:06;;;;;;;24.10;13.95;;;3.70;89.80;;;;;;5007383;28;20187;-85
2022/01/25 11:29:34;;;;;;;34.28;19.90;;;3.70;88.90;;;;;;5003909;28;20187;-87
2022/01/25 11:32:05;;;;;;;19.38;11.40;;;3.60;88.50;;;;;;5010678;28;20229;-87
2022/01/25 11:34:33;;;;;;;22.05;13.77;;;3.50;88.60;;;;;;5009743;28;20187;-85
2022/01/25 11:37:02;;;;;;;21.85;14.40;;;3.50;88.80;;;;;;5009927;28;20183;-86
2022/01/25 11:39:29;;;;;;;22.88;14.50;;;3.50;88.70;;;;;;5014290;28;20191;-88
2022/01/25 11:42:07;;;;;;;24.38;15.23;;;3.50;88.00;;;;;;5022009;28;20175;-85
2022/01/25 11:44:35;;;;;;;30.75;18.73;;;3.50;87.80;;;;;;5014551;28;20179;-87
2022/01/25 11:47:12;;;;;;;20.73;13.50;;;3.40;89.30;;;;;;5007682;28;20271;-85
2022/01/25 11:50:09;;;;;;;20.73;16.00;;;3.40;88.90;;;;;;5026082;28;20207;-85
2022/01/25 11:52:35;;;;;;;23.90;15.30;;;3.40;90.00;;;;;;5007211;28;20573;-88
2022/01/25 11:55:19;;;;;;;24.00;13.13;;;3.40;89.00;;;;;;5012572;28;20673;-87
2022/01/25 11:58:07;;;;;;;20.52;14.63;;;3.30;88.40;;;;;;5009263;28;20187;-86
2022/01/25 12:00:44;;;;;;;17.77;12.93;;;3.30;88.90;;;;;;5029629;28;20198;-86
2022/01/25 12:03:29;;;;;;;20.90;15.50;;;3.20;88.50;;;;;;5021106;28;20202;-85
2022/01/25 12:05:56;;;;;;;19.17;12.18;;;3.30;88.80;;;;;;5010220;28;20730;-88
2022/01/25 12:08:37;;;;;;;21.13;11.88;;;3.40;88.20;;;;;;5004628;28;20806;-86
2022/01/25 12:11:28;;;;;;;20.83;14.45;;;3.50;87.40;;;;;;5008164;28;20215;-89
2022/01/25 12:14:25;;;;;;;19.67;12.63;;;3.50;88.30;;;;;;5004349;28;20183;-87
2022/01/25 12:16:52;;;;;;;25.63;15.20;;;3.60;88.70;;;;;;5003912;28;20616;-86
2022/01/25 12:19:50;;;;;;;21.92;13.70;;;3.60;89.00;;;;;;5006262;28;20541;-88
2022/01/25 12:25:18;;;;;;;19.05;15.00;;;3.50;89.20;;;;;;5010450;28;21143;-86
2022/01/25 12:27:57;;;;;;;29.65;17.83;;;3.60;89.40;;;;;;5020150;28;20212;-88
2022/01/25 12:30:25;;;;;;;19.88;13.45;;;3.60;89.70;;;;;;5008414;28;20230;-86
2022/01/25 12:33:08;;;;;;;20.33;15.18;;;3.60;89.60;;;;;;5008939;28;20561;-87
2022/01/25 12:35:46;;;;;;;21.30;14.07;;;3.70;89.80;;;;;;5021072;28;20226;-88
2022/01/25 12:38:19;;;;;;;64.82;37.33;;;3.70;89.00;;;;;;5009726;28;20193;-87
2022/01/25 12:40:48;;;;;;;76.60;39.75;;;3.60;89.00;;;;;;5004429;28;20211;-88
2022/01/25 12:43:50;;;;;;;25.42;18.08;;;3.50;89.20;;;;;;5008621;28;20187;-88
2022/01/25 12:46:26;;;;;;;19.25;13.10;;;3.60;88.70;;;;;;5009963;28;20270;-89
2022/01/25 12:49:04;;;;;;;31.38;21.05;;;3.70;89.10;;;;;;5014250;28;20267;-89
2022/01/25 12:51:35;;;;;;;31.73;22.02;;;3.70;89.20;;;;;;4994187;28;20203;-90
2022/01/25 12:54:07;;;;;;;19.80;14.02;;;3.50;89.50;;;;;;5008403;28;20181;-90
2022/01/25 12:56:39;;;;;;;20.58;13.98;;;3.50;89.30;;;;;;5013194;28;20283;-87
2022/01/25 12:59:08;;;;;;;22.92;13.95;;;3.40;89.90;;;;;;5006385;28;20266;-87
2022/01/25 13:01:42;;;;;;;21.80;13.90;;;3.40;89.90;;;;;;5014007;28;20207;-89
2022/01/25 13:04:10;;;;;;;23.67;15.20;;;3.40;90.00;;;;;;5014254;28;20191;-88
2022/01/25 13:06:46;;;;;;;25.17;13.55;;;3.40;90.10;;;;;;5015292;28;20207;-91
2022/01/25 13:09:24;;;;;;;21.30;13.32;;;3.40;90.20;;;;;;5016746;28;20222;-92
2022/01/25 13:17:02;;;;;;;22.40;15.02;;;3.30;90.60;;;;;;5013890;28;20183;-88
2022/01/25 13:19:37;;;;;;;25.35;15.07;;;3.30;91.20;;;;;;5020507;28;20187;-87
2022/01/25 13:22:08;;;;;;;19.20;14.23;;;3.20;91.50;;;;;;5010272;28;20202;-86
2022/01/25 13:24:46;;;;;;;19.02;14.32;;;3.10;91.40;;;;;;5009919;28;20211;-88
2022/01/25 13:27:16;;;;;;;24.30;14.45;;;3.10;91.70;;;;;;5007507;28;20231;-90
2022/01/25 13:32:38;;;;;;;23.52;14.70;;;3.00;92.30;;;;;;5015031;28;20205;-90
2022/01/25 13:35:30;;;;;;;22.45;14.43;;;3.00;91.80;;;;;;5007908;28;20700;-90
2022/01/25 13:38:18;;;;;;;32.90;19.23;;;2.90;92.10;;;;;;5008475;28;20262;-88
2022/01/25 13:41:42;;;;;;;22.73;15.82;;;2.90;92.70;;;;;;5003603;28;20199;-90
2022/01/25 13:46:29;;;;;;;102.20;47.90;;;2.80;92.60;;;;;;5002912;28;20222;-90
2022/01/25 13:48:58;;;;;;;29.10;18.25;;;2.70;92.80;;;;;;5012175;28;20164;-90
2022/01/25 13:51:28;;;;;;;28.48;19.40;;;2.70;93.20;;;;;;4991447;28;20212;-87
2022/01/25 13:53:57;;;;;;;31.80;20.20;;;2.70;93.20;;;;;;5003549;28;20178;-87
2022/01/25 13:56:27;;;;;;;24.88;15.93;;;2.60;93.50;;;;;;5011350;28;20207;-87
2022/01/25 13:58:53;;;;;;;26.27;16.35;;;2.60;93.40;;;;;;5030725;28;20171;-89
2022/01/25 14:01:23;;;;;;;28.23;18.38;;;2.60;93.70;;;;;;5009631;28;20207;-89
2022/01/25 14:04:01;;;;;;;26.63;16.70;;;2.50;94.00;;;;;;5024996;28;20210;-86
2022/01/25 14:06:52;;;;;;;25.65;16.70;;;2.50;94.20;;;;;;4999781;28;20235;-86
2022/01/25 14:09:30;;;;;;;26.77;15.82;;;2.50;94.40;;;;;;4998424;28;20704;-89
2022/01/25 14:25:38;;;;;;;34.30;22.67;;;2.40;95.80;;;;;;5009766;28;20273;-87
2022/01/25 14:28:11;;;;;;;35.40;22.80;;;2.40;95.90;;;;;;5007927;28;20176;-86
2022/01/25 14:30:39;;;;;;;42.38;22.02;;;2.40;96.00;;;;;;4999941;28;20199;-87
2022/01/25 14:33:11;;;;;;;27.10;18.10;;;2.30;96.40;;;;;;5009037;28;20180;-89
2022/01/25 14:35:55;;;;;;;42.15;26.23;;;2.30;96.10;;;;;;5014597;28;20582;-88
2022/01/25 14:38:43;;;;;;;33.90;21.20;;;2.30;96.40;;;;;;5010884;28;20716;-87
2022/01/25 14:41:23;;;;;;;34.40;22.70;;;2.30;96.30;;;;;;5009218;28;20231;-87
2022/01/25 14:43:53;;;;;;;36.28;21.60;;;2.20;96.60;;;;;;5026386;28;20193;-88
2022/01/25 14:46:25;;;;;;;51.03;30.90;;;2.20;96.60;;;;;;5004189;28;20533;-88
2022/01/25 14:49:13;;;;;;;51.40;31.02;;;2.10;96.80;;;;;;5023323;28;20180;-88
2022/01/25 14:51:44;;;;;;;40.70;23.48;;;2.10;96.90;;;;;;5025232;28;20211;-87
2022/01/25 14:54:15;;;;;;;37.47;21.63;;;2.00;97.30;;;;;;5011647;28;20183;-87
2022/01/25 14:56:48;;;;;;;27.60;17.60;;;2.00;97.30;;;;;;5005642;28;20184;-89